createdAt,value
2023-05-16T00:01:02.664Z,10.13
2023-05-16T00:03:30.821Z,9.88
2023-05-16T00:05:58.095Z,12.88
2023-05-16T00:08:25.477Z,14.80
2023-05-16T00:10:52.562Z,16.00
2023-05-16T00:13:25.609Z,14.57
2023-05-16T00:15:53.592Z,15.15
2023-05-16T00:18:22.071Z,12.48
2023-05-16T00:20:49.689Z,11.55
2023-05-16T00:23:17.117Z,10.65
2023-05-16T00:25:44.509Z,13.25
2023-05-16T00:28:11.799Z,11.23
2023-05-16T00:30:38.942Z,13.30
2023-05-16T00:33:06.138Z,11.40
2023-05-16T00:35:33.336Z,11.77
2023-05-16T00:38:01.220Z,11.70
2023-05-16T00:40:28.546Z,11.75
2023-05-16T00:42:55.856Z,9.88
2023-05-16T00:45:23.078Z,10.43
2023-05-16T00:47:50.654Z,9.98
2023-05-16T00:50:18.145Z,9.60
2023-05-16T00:52:45.298Z,10.10
2023-05-16T00:55:12.384Z,10.23
2023-05-16T00:57:39.532Z,10.23
2023-05-16T01:00:10.785Z,10.70
2023-05-16T01:02:38.165Z,10.73
2023-05-16T01:05:05.542Z,12.35
2023-05-16T01:07:32.643Z,17.00
2023-05-16T01:09:59.946Z,12.68
2023-05-16T01:12:32.885Z,12.23
2023-05-16T01:15:08.783Z,12.38
2023-05-16T01:18:05.329Z,14.80
2023-05-16T01:20:32.460Z,13.63
2023-05-16T01:23:02.744Z,10.18
2023-05-16T01:25:40.491Z,12.85
2023-05-16T01:28:07.577Z,11.38
2023-05-16T01:30:36.304Z,12.57
2023-05-16T01:33:03.510Z,18.42
2023-05-16T01:35:30.952Z,56.53
2023-05-16T01:37:58.254Z,99.95
2023-05-16T01:40:37.452Z,73.28
2023-05-16T01:43:06.017Z,59.03
2023-05-16T01:45:33.675Z,49.42
2023-05-16T01:48:07.112Z,44.63
2023-05-16T01:50:35.412Z,47.92
2023-05-16T01:53:09.429Z,37.28
2023-05-16T01:55:49.396Z,23.52
2023-05-16T01:58:16.850Z,21.67
2023-05-16T02:00:44.740Z,20.10
2023-05-16T02:03:12.103Z,16.90
2023-05-16T02:05:39.407Z,20.67
2023-05-16T02:08:06.550Z,18.38
2023-05-16T02:10:33.704Z,19.05
2023-05-16T02:13:00.970Z,62.95
2023-05-16T02:15:28.745Z,135.30
2023-05-16T02:17:56.222Z,214.98
2023-05-16T02:20:23.332Z,373.42
2023-05-16T02:22:50.402Z,482.48
2023-05-16T02:25:17.520Z,395.35
2023-05-16T02:27:44.693Z,383.95
2023-05-16T02:30:12.144Z,150.70
2023-05-16T02:32:39.952Z,74.65
2023-05-16T02:35:08.080Z,82.13
2023-05-16T02:37:35.441Z,170.50
2023-05-16T02:40:04.022Z,89.80
2023-05-16T02:42:31.931Z,107.30
2023-05-16T02:44:59.021Z,65.80
2023-05-16T02:47:26.168Z,28.55
2023-05-16T02:49:53.477Z,15.95
2023-05-16T02:52:21.004Z,27.20
2023-05-16T02:54:59.848Z,23.92
2023-05-16T02:57:31.693Z,23.05
2023-05-16T02:59:59.176Z,24.63
2023-05-16T03:02:26.439Z,40.35
2023-05-16T03:04:53.631Z,29.60
2023-05-16T03:07:20.728Z,25.83
2023-05-16T03:09:47.795Z,24.75
2023-05-16T03:12:14.894Z,23.83
2023-05-16T03:14:41.990Z,21.55
2023-05-16T03:17:09.157Z,23.02
2023-05-16T03:19:36.314Z,26.75
2023-05-16T03:22:04.073Z,22.02
2023-05-16T03:24:31.202Z,20.63
2023-05-16T03:26:59.943Z,18.67
2023-05-16T03:29:27.124Z,18.95
2023-05-16T03:31:54.456Z,24.05
2023-05-16T03:34:21.759Z,21.17
2023-05-16T03:36:52.873Z,20.65
2023-05-16T03:39:19.950Z,21.85
2023-05-16T03:41:47.197Z,17.58
2023-05-16T03:44:14.292Z,21.67
2023-05-16T03:46:41.383Z,17.40
2023-05-16T03:49:08.481Z,19.88
2023-05-16T03:51:35.660Z,24.17
2023-05-16T03:54:02.815Z,17.63
2023-05-16T03:56:29.941Z,18.80
2023-05-16T03:58:57.193Z,23.63
2023-05-16T04:01:24.263Z,21.48
2023-05-16T04:03:51.432Z,36.35
2023-05-16T04:06:18.629Z,30.92
2023-05-16T04:08:45.884Z,25.90
2023-05-16T04:11:12.988Z,23.48
2023-05-16T04:13:40.113Z,24.13
2023-05-16T04:16:07.633Z,24.75
2023-05-16T04:18:34.845Z,26.83
2023-05-16T04:21:02.258Z,23.02
2023-05-16T04:23:29.342Z,20.88
2023-05-16T04:25:57.017Z,20.02
2023-05-16T04:28:24.178Z,23.08
2023-05-16T04:30:51.364Z,19.95
2023-05-16T04:33:18.931Z,20.88
2023-05-16T04:35:46.031Z,17.52
2023-05-16T04:38:13.099Z,14.02
2023-05-16T04:40:41.817Z,12.95
2023-05-16T04:43:08.941Z,17.05
2023-05-16T04:45:37.559Z,15.18
2023-05-16T04:48:05.213Z,14.43
2023-05-16T04:50:32.390Z,13.07
2023-05-16T04:52:59.533Z,16.02
2023-05-16T04:55:26.936Z,17.02
2023-05-16T04:57:54.233Z,20.98
2023-05-16T05:00:21.444Z,13.20
2023-05-16T05:02:48.696Z,12.90
2023-05-16T05:05:15.936Z,19.80
2023-05-16T05:07:43.147Z,15.55
2023-05-16T05:10:11.654Z,15.85
2023-05-16T05:12:38.772Z,14.25
2023-05-16T05:15:06.478Z,15.18
2023-05-16T05:17:33.767Z,14.50
2023-05-16T05:20:02.968Z,15.65
2023-05-16T05:22:30.765Z,8.65
2023-05-16T05:24:57.929Z,8.85
2023-05-16T05:27:25.438Z,8.80
2023-05-16T05:29:52.558Z,9.30
2023-05-16T05:32:19.713Z,6.93
2023-05-16T05:34:46.823Z,9.50
2023-05-16T05:37:14.588Z,6.35
2023-05-16T05:39:42.020Z,8.18
2023-05-16T05:42:09.188Z,6.30
2023-05-16T05:44:37.752Z,5.03
2023-05-16T05:47:05.847Z,4.40
2023-05-16T05:49:32.979Z,5.18
2023-05-16T05:52:00.066Z,6.07
2023-05-16T05:54:27.422Z,5.18
2023-05-16T05:56:54.522Z,5.35
2023-05-16T05:59:21.594Z,8.05
2023-05-16T06:01:52.791Z,5.40
2023-05-16T06:04:20.768Z,5.78
2023-05-16T06:06:47.952Z,5.18
2023-05-16T06:09:15.150Z,4.78
2023-05-16T06:11:43.203Z,6.40
2023-05-16T06:14:11.065Z,4.85
2023-05-16T06:16:40.207Z,4.90
2023-05-16T06:19:07.462Z,3.78
2023-05-16T06:21:34.622Z,5.43
2023-05-16T06:24:01.763Z,4.43
2023-05-16T06:26:28.867Z,4.50
2023-05-16T06:28:56.101Z,9.13
2023-05-16T06:31:23.254Z,7.20
2023-05-16T06:33:50.422Z,5.75
2023-05-16T06:36:17.559Z,4.03
2023-05-16T06:38:45.277Z,6.50
2023-05-16T06:41:12.340Z,7.78
2023-05-16T06:43:39.477Z,12.60
2023-05-16T06:46:06.906Z,4.88
2023-05-16T06:48:34.062Z,5.60
2023-05-16T06:51:01.351Z,6.30
2023-05-16T06:53:28.868Z,4.65
2023-05-16T06:55:56.166Z,4.65
2023-05-16T06:58:23.294Z,5.82
2023-05-16T07:00:50.722Z,5.57
2023-05-16T07:03:18.472Z,4.35
2023-05-16T07:05:45.799Z,4.97
2023-05-16T07:08:13.050Z,4.50
2023-05-16T07:10:40.430Z,6.53
2023-05-16T07:13:07.669Z,4.40
2023-05-16T07:15:34.944Z,4.80
2023-05-16T07:18:02.139Z,5.30
2023-05-16T07:20:29.314Z,3.80
2023-05-16T07:22:57.714Z,4.30
2023-05-16T07:25:25.403Z,7.55
2023-05-16T07:27:52.782Z,9.23
2023-05-16T07:30:20.784Z,3.55
2023-05-16T07:32:47.992Z,25.50
2023-05-16T07:35:15.562Z,11.05
2023-05-16T07:37:43.509Z,7.88
2023-05-16T07:40:11.592Z,4.10
2023-05-16T07:42:38.757Z,3.83
2023-05-16T07:45:07.101Z,18.67
2023-05-16T07:47:34.423Z,5.40
2023-05-16T07:50:01.593Z,6.72
2023-05-16T07:52:29.052Z,6.00
2023-05-16T07:54:56.487Z,4.68
2023-05-16T07:57:25.136Z,6.88
2023-05-16T07:59:52.866Z,5.57
2023-05-16T08:02:20.265Z,4.30
2023-05-16T08:04:48.879Z,4.20
2023-05-16T08:07:16.111Z,3.08
2023-05-16T08:09:43.259Z,6.60
2023-05-16T08:12:10.450Z,5.00
2023-05-16T08:14:37.678Z,4.32
2023-05-16T08:17:04.919Z,3.95
2023-05-16T08:19:33.077Z,4.20
2023-05-16T08:22:00.313Z,4.60
2023-05-16T08:24:28.886Z,4.63
2023-05-16T08:26:56.037Z,3.88
2023-05-16T08:29:23.190Z,3.85
2023-05-16T08:31:50.426Z,4.43
2023-05-16T08:34:17.661Z,3.80
2023-05-16T08:36:44.872Z,5.38
2023-05-16T08:39:13.009Z,4.50
2023-05-16T08:41:40.380Z,3.90
2023-05-16T08:44:07.641Z,4.00
2023-05-16T08:46:35.893Z,3.63
2023-05-16T08:49:08.043Z,4.28
2023-05-16T08:51:35.621Z,4.10
2023-05-16T08:54:10.570Z,9.07
2023-05-16T08:56:38.005Z,4.05
2023-05-16T08:59:05.117Z,4.90
2023-05-16T09:01:32.580Z,4.35
2023-05-16T09:04:00.297Z,4.20
2023-05-16T09:06:28.008Z,4.22
2023-05-16T09:08:55.433Z,5.47
2023-05-16T09:11:22.625Z,4.15
2023-05-16T09:13:49.957Z,3.72
2023-05-16T09:16:17.996Z,11.75
2023-05-16T09:18:46.472Z,5.63
2023-05-16T09:21:13.854Z,4.40
2023-05-16T09:23:41.716Z,4.85
2023-05-16T09:26:08.933Z,4.80
2023-05-16T09:28:38.223Z,4.75
2023-05-16T09:31:05.940Z,3.80
2023-05-16T09:33:33.227Z,5.68
2023-05-16T09:36:00.775Z,6.38
2023-05-16T09:38:28.510Z,5.38
2023-05-16T09:40:55.960Z,7.95
2023-05-16T09:43:26.900Z,6.95
2023-05-16T09:45:54.300Z,3.92
2023-05-16T09:48:21.811Z,7.47
2023-05-16T09:50:52.510Z,3.63
2023-05-16T09:53:26.657Z,5.28
2023-05-16T09:56:13.173Z,3.90
2023-05-16T09:58:40.950Z,4.50
2023-05-16T10:01:08.299Z,4.15
2023-05-16T10:03:36.659Z,4.03
2023-05-16T10:06:04.296Z,5.28
2023-05-16T10:08:32.397Z,4.78
2023-05-16T10:10:59.580Z,5.55
2023-05-16T10:13:30.831Z,3.58
2023-05-16T10:15:58.402Z,4.80
2023-05-16T10:18:27.669Z,3.67
2023-05-16T10:20:54.823Z,3.67
2023-05-16T10:23:22.616Z,5.10
2023-05-16T10:25:49.993Z,3.72
2023-05-16T10:28:17.267Z,21.17
2023-05-16T10:30:46.490Z,3.83
2023-05-16T10:33:14.145Z,6.40
2023-05-16T10:35:41.464Z,3.90
2023-05-16T10:38:09.576Z,5.75
2023-05-16T10:40:36.834Z,3.85
2023-05-16T10:43:04.545Z,6.28
2023-05-16T10:45:32.230Z,4.25
2023-05-16T10:48:00.305Z,3.75
2023-05-16T10:50:40.499Z,3.60
2023-05-16T10:53:13.735Z,4.57
2023-05-16T10:55:41.067Z,3.50
2023-05-16T10:58:08.554Z,3.53
2023-05-16T11:00:35.706Z,4.75
2023-05-16T11:03:11.390Z,8.18
2023-05-16T11:05:38.662Z,4.13
2023-05-16T11:08:06.317Z,4.50
2023-05-16T11:10:33.521Z,4.35
2023-05-16T11:13:04.078Z,5.00
2023-05-16T11:15:34.733Z,3.88
2023-05-16T11:18:08.728Z,4.15
2023-05-16T11:20:39.279Z,3.53
2023-05-16T11:23:22.722Z,45.17
2023-05-16T11:25:52.662Z,6.18
2023-05-16T11:28:20.047Z,7.30
2023-05-16T11:30:52.064Z,6.00
2023-05-16T11:33:19.419Z,8.18
2023-05-16T11:36:13.929Z,5.40
2023-05-16T11:38:43.830Z,8.70
2023-05-16T11:41:11.511Z,4.45
2023-05-16T11:43:39.945Z,7.15
2023-05-16T11:46:07.821Z,4.72
2023-05-16T11:48:36.560Z,4.60
2023-05-16T11:51:04.170Z,6.15
2023-05-16T11:53:31.334Z,4.40
2023-05-16T11:56:01.457Z,4.28
2023-05-16T11:58:29.036Z,5.65
2023-05-16T12:00:56.235Z,4.97
2023-05-16T12:03:24.298Z,7.18
2023-05-16T12:05:55.450Z,17.73
2023-05-16T12:08:22.799Z,4.95
2023-05-16T12:10:51.527Z,11.45
2023-05-16T12:13:21.770Z,7.22
2023-05-16T12:15:49.007Z,4.78
2023-05-16T12:18:16.678Z,7.35
2023-05-16T12:20:44.494Z,10.43
2023-05-16T12:23:12.600Z,13.65
2023-05-16T12:25:45.824Z,10.50
2023-05-16T12:28:13.272Z,9.57
2023-05-16T12:30:45.006Z,4.40
2023-05-16T12:33:12.972Z,8.07
2023-05-16T12:35:40.800Z,10.25
2023-05-16T12:38:08.609Z,5.88
2023-05-16T12:40:37.483Z,12.30
2023-05-16T12:43:04.672Z,7.88
2023-05-16T12:45:34.068Z,5.47
2023-05-16T12:48:08.766Z,4.80
2023-05-16T12:50:36.775Z,5.85
2023-05-16T12:53:04.119Z,5.35
2023-05-16T12:55:31.597Z,5.57
2023-05-16T12:57:58.827Z,6.03
2023-05-16T13:00:26.494Z,4.75
2023-05-16T13:02:54.638Z,4.50
2023-05-16T13:05:23.398Z,5.43
2023-05-16T13:07:53.621Z,5.57
2023-05-16T13:10:20.960Z,5.07
2023-05-16T13:12:48.076Z,5.07
2023-05-16T13:15:15.287Z,5.47
2023-05-16T13:17:44.154Z,4.75
2023-05-16T13:20:15.197Z,5.25
2023-05-16T13:22:42.964Z,6.45
2023-05-16T13:25:10.703Z,5.50
2023-05-16T13:27:38.019Z,6.32
2023-05-16T13:30:05.381Z,7.75
2023-05-16T13:32:32.894Z,4.90
2023-05-16T13:35:00.123Z,5.20
2023-05-16T13:37:27.356Z,7.55
2023-05-16T13:39:57.697Z,5.80
2023-05-16T13:42:27.805Z,5.70
2023-05-16T13:44:54.973Z,6.15
2023-05-16T13:47:22.147Z,4.55
2023-05-16T13:49:49.332Z,4.57
2023-05-16T13:52:16.457Z,5.05
2023-05-16T13:54:43.609Z,4.63
2023-05-16T13:57:11.455Z,6.10
2023-05-16T14:00:03.999Z,4.90
2023-05-16T14:02:26.401Z,4.53
2023-05-16T14:04:53.991Z,4.85
2023-05-16T14:07:21.127Z,4.63
2023-05-16T14:09:48.309Z,4.70
2023-05-16T14:12:15.442Z,4.50
2023-05-16T14:14:42.607Z,5.38
2023-05-16T14:17:09.797Z,4.85
2023-05-16T14:19:37.271Z,6.20
2023-05-16T14:22:04.384Z,8.18
2023-05-16T14:24:31.574Z,5.30
2023-05-16T14:26:58.709Z,6.55
2023-05-16T14:29:26.067Z,6.95
2023-05-16T14:31:53.623Z,7.22
2023-05-16T14:34:22.285Z,9.55
2023-05-16T14:36:49.686Z,6.10
2023-05-16T14:39:17.571Z,5.07
2023-05-16T14:41:44.696Z,5.50
2023-05-16T14:44:12.667Z,5.53
2023-05-16T14:46:40.090Z,5.80
2023-05-16T14:49:07.353Z,5.50
2023-05-16T14:51:34.545Z,5.55
2023-05-16T14:54:01.741Z,5.35
2023-05-16T14:56:28.904Z,5.63
2023-05-16T14:58:56.034Z,6.43
2023-05-16T15:01:23.265Z,5.53
2023-05-16T15:03:55.286Z,6.65
2023-05-16T15:06:24.002Z,8.75
2023-05-16T15:08:51.431Z,10.15
2023-05-16T15:11:18.574Z,9.57
2023-05-16T15:13:46.301Z,13.52
2023-05-16T15:16:13.474Z,10.80
2023-05-16T15:18:41.015Z,9.75
2023-05-16T15:21:09.078Z,12.55
2023-05-16T15:23:36.677Z,12.25
2023-05-16T15:26:04.291Z,10.50
2023-05-16T15:28:31.428Z,12.38
2023-05-16T15:30:58.570Z,5.45
2023-05-16T15:33:25.792Z,5.57
2023-05-16T15:35:53.043Z,7.10
2023-05-16T15:38:20.163Z,6.13
2023-05-16T15:40:50.604Z,7.78
2023-05-16T15:43:22.328Z,7.20
2023-05-16T15:45:49.671Z,8.52
2023-05-16T15:48:16.854Z,6.68
2023-05-16T15:50:44.039Z,5.65
2023-05-16T15:53:11.161Z,5.60
2023-05-16T15:55:38.326Z,46.28
2023-05-16T15:58:05.590Z,23.63
2023-05-16T16:00:32.782Z,11.00
2023-05-16T16:02:59.997Z,7.93
2023-05-16T16:05:27.373Z,15.23
2023-05-16T16:07:54.675Z,12.20
2023-05-16T16:10:22.728Z,27.15
2023-05-16T16:13:02.495Z,8.50
2023-05-16T16:15:32.814Z,8.70
2023-05-16T16:18:00.865Z,26.83
2023-05-16T16:20:28.256Z,16.23
2023-05-16T16:22:55.581Z,12.85
2023-05-16T16:25:22.896Z,8.70
2023-05-16T16:27:50.236Z,11.73
2023-05-16T16:30:17.350Z,10.05
2023-05-16T16:32:44.488Z,26.70
2023-05-16T16:35:11.995Z,12.93
2023-05-16T16:37:39.234Z,14.60
2023-05-16T16:40:09.145Z,19.52
2023-05-16T16:42:38.620Z,43.90
2023-05-16T16:45:06.175Z,30.55
2023-05-16T16:47:33.577Z,24.65
2023-05-16T16:50:01.448Z,21.02
2023-05-16T16:52:28.785Z,27.98
2023-05-16T16:54:56.037Z,20.63
2023-05-16T16:57:23.328Z,26.55
2023-05-16T16:59:50.626Z,34.67
2023-05-16T17:02:17.927Z,18.88
2023-05-16T17:04:45.303Z,21.58
2023-05-16T17:07:12.455Z,27.55
2023-05-16T17:09:42.139Z,48.75
2023-05-16T17:12:18.640Z,62.70
2023-05-16T17:14:46.650Z,68.68
2023-05-16T17:17:14.036Z,60.63
2023-05-16T17:19:41.277Z,49.70
2023-05-16T17:22:08.825Z,38.67
2023-05-16T17:24:35.964Z,29.10
2023-05-16T17:27:03.196Z,25.25
2023-05-16T17:29:30.655Z,32.97
2023-05-16T17:31:57.778Z,24.95
2023-05-16T17:34:24.957Z,28.27
2023-05-16T17:36:52.092Z,33.78
2023-05-16T17:39:20.457Z,37.40
2023-05-16T17:41:47.693Z,39.53
2023-05-16T17:44:14.861Z,41.33
2023-05-16T17:46:42.568Z,268.98
2023-05-16T17:49:10.294Z,44.33
2023-05-16T17:51:46.294Z,43.63
2023-05-16T17:54:15.508Z,54.78
2023-05-16T17:56:42.879Z,69.43
2023-05-16T17:59:10.126Z,52.63
2023-05-16T18:01:38.255Z,54.95
2023-05-16T18:04:06.907Z,72.70
2023-05-16T18:06:34.926Z,74.78
2023-05-16T18:09:05.444Z,71.32
2023-05-16T18:11:35.985Z,88.38
2023-05-16T18:14:03.191Z,76.88
2023-05-16T18:16:30.812Z,67.97
2023-05-16T18:19:00.678Z,56.47
2023-05-16T18:21:27.907Z,57.33
2023-05-16T18:23:59.094Z,59.67
2023-05-16T18:26:29.678Z,62.25
2023-05-16T18:28:57.005Z,70.03
2023-05-16T18:31:24.129Z,68.32
2023-05-16T18:33:51.282Z,75.88
2023-05-16T18:36:18.788Z,71.55
2023-05-16T18:38:46.197Z,91.22
2023-05-16T18:41:13.412Z,84.88
2023-05-16T18:43:40.572Z,87.38
2023-05-16T18:46:07.718Z,125.03
2023-05-16T18:48:36.246Z,82.57
2023-05-16T18:51:03.604Z,72.97
2023-05-16T18:53:30.899Z,65.85
2023-05-16T18:55:58.552Z,56.17
2023-05-16T18:58:25.711Z,41.30
2023-05-16T19:00:52.926Z,39.40
2023-05-16T19:03:20.170Z,38.47
2023-05-16T19:05:47.779Z,30.52
2023-05-16T19:08:15.036Z,29.90
2023-05-16T19:10:42.185Z,30.88
2023-05-16T19:13:09.414Z,28.38
2023-05-16T19:15:36.654Z,24.48
2023-05-16T19:18:04.847Z,20.80
2023-05-16T19:20:32.188Z,30.20
2023-05-16T19:22:59.319Z,25.52
2023-05-16T19:25:27.023Z,27.08
2023-05-16T19:27:54.404Z,27.48
2023-05-16T19:30:21.666Z,36.25
2023-05-16T19:32:49.057Z,51.38
2023-05-16T19:35:19.034Z,58.60
2023-05-16T19:37:46.412Z,36.03
2023-05-16T19:40:16.309Z,26.70
2023-05-16T19:42:44.408Z,20.70
2023-05-16T19:45:11.662Z,14.98
2023-05-16T19:47:38.928Z,16.80
2023-05-16T19:50:06.928Z,21.63
2023-05-16T19:52:34.132Z,15.68
2023-05-16T19:55:01.361Z,20.48
2023-05-16T19:57:28.797Z,19.85
2023-05-16T19:59:55.994Z,16.00
2023-05-16T20:02:24.444Z,20.60
2023-05-16T20:04:52.136Z,20.50
2023-05-16T20:07:19.371Z,13.05
2023-05-16T20:09:46.513Z,13.80
2023-05-16T20:12:13.762Z,15.25
2023-05-16T20:14:41.034Z,10.20
2023-05-16T20:17:08.220Z,8.65
2023-05-16T20:19:37.483Z,11.55
2023-05-16T20:22:04.823Z,13.25
2023-05-16T20:24:31.941Z,13.38
2023-05-16T20:26:59.247Z,14.73
2023-05-16T20:29:26.400Z,14.48
2023-05-16T20:31:53.637Z,11.10
2023-05-16T20:34:20.816Z,12.20
2023-05-16T20:36:47.947Z,11.10
2023-05-16T20:39:15.123Z,10.45
2023-05-16T20:41:42.267Z,13.18
2023-05-16T20:44:09.478Z,11.18
2023-05-16T20:46:36.954Z,11.55
2023-05-16T20:49:04.367Z,11.45
2023-05-16T20:51:32.040Z,10.80
2023-05-16T20:53:59.338Z,9.55
2023-05-16T20:56:26.537Z,9.52
2023-05-16T20:58:53.670Z,10.27
2023-05-16T21:01:21.293Z,10.18
2023-05-16T21:03:48.492Z,12.00
2023-05-16T21:06:15.676Z,13.55
2023-05-16T21:08:42.812Z,10.68
2023-05-16T21:11:09.958Z,10.95
2023-05-16T21:13:37.099Z,10.63
2023-05-16T21:16:04.260Z,11.55
2023-05-16T21:18:31.619Z,10.60
2023-05-16T21:20:58.824Z,13.02
2023-05-16T21:23:25.949Z,13.15
2023-05-16T21:25:53.106Z,15.18
2023-05-16T21:28:20.302Z,15.30
2023-05-16T21:30:47.418Z,15.18
2023-05-16T21:33:14.639Z,12.95
2023-05-16T21:35:41.898Z,11.15
2023-05-16T21:38:09.036Z,13.43
2023-05-16T21:40:36.197Z,11.52
2023-05-16T21:43:03.323Z,11.15
2023-05-16T21:45:30.718Z,10.20
2023-05-16T21:47:57.996Z,7.75
2023-05-16T21:50:25.283Z,8.68
2023-05-16T21:52:52.407Z,11.70
2023-05-16T21:55:19.552Z,10.20
2023-05-16T21:57:46.702Z,10.98
2023-05-16T22:00:14.170Z,11.05
2023-05-16T22:02:41.449Z,13.73
2023-05-16T22:05:08.894Z,15.52
2023-05-16T22:07:36.512Z,16.38
2023-05-16T22:10:03.795Z,20.02
2023-05-16T22:12:31.051Z,19.13
2023-05-16T22:14:58.191Z,19.13
2023-05-16T22:17:25.391Z,18.58
2023-05-16T22:19:52.569Z,14.57
2023-05-16T22:22:20.085Z,12.18
2023-05-16T22:24:47.261Z,8.82
2023-05-16T22:27:14.431Z,9.93
2023-05-16T22:29:41.561Z,11.20
2023-05-16T22:32:09.040Z,31.63
2023-05-16T22:34:39.432Z,14.23
2023-05-16T22:37:07.253Z,16.77
2023-05-16T22:39:34.437Z,14.30
2023-05-16T22:42:01.633Z,12.27
2023-05-16T22:44:29.013Z,16.13
2023-05-16T22:46:56.330Z,15.32
2023-05-16T22:49:23.430Z,12.63
2023-05-16T22:51:50.942Z,15.57
2023-05-16T22:54:18.183Z,20.15
2023-05-16T22:56:45.287Z,18.23
2023-05-16T22:59:12.629Z,16.05
2023-05-16T23:01:39.888Z,16.83
2023-05-16T23:04:07.165Z,15.98
2023-05-16T23:06:34.434Z,16.85
2023-05-16T23:09:02.507Z,16.85
2023-05-16T23:11:29.644Z,19.02
2023-05-16T23:13:56.829Z,19.60
2023-05-16T23:16:23.997Z,19.63
2023-05-16T23:18:51.294Z,20.17
2023-05-16T23:21:18.518Z,20.63
2023-05-16T23:23:45.688Z,17.88
2023-05-16T23:26:12.811Z,17.10
2023-05-16T23:28:39.978Z,17.17
2023-05-16T23:31:07.137Z,17.20
2023-05-16T23:33:35.767Z,15.80
2023-05-16T23:36:02.949Z,16.92
2023-05-16T23:38:30.109Z,16.73
2023-05-16T23:40:57.232Z,13.63
2023-05-16T23:43:24.442Z,13.95
2023-05-16T23:45:51.592Z,14.18
2023-05-16T23:48:18.954Z,14.65
2023-05-16T23:50:46.109Z,15.68
2023-05-16T23:53:13.301Z,14.15
2023-05-16T23:55:40.408Z,14.68
2023-05-16T23:58:07.562Z,17.13
